sensor_id;sensor_type;location;lat;lon;timestamp;pressure;altitude;pressure_sealevel;temperature;humidity
17505;BME280;8870;50.950;11.762;2023-02-15T00:00:27;99785.56;;;2.29;100.00
17505;BME280;8870;50.950;11.762;2023-02-15T00:05:58;99776.28;;;2.19;100.00
17505;BME280;8870;50.950;11.762;2023-02-15T00:11:18;99768.88;;;2.06;100.00
17505;BME280;8870;50.950;11.762;2023-02-15T00:17:09;99769.50;;;1.94;100.00
17505;BME280;8870;50.950;11.762;2023-02-15T00:22:27;99773.38;;;1.87;100.00
17505;BME280;8870;50.950;11.762;2023-02-15T00:27:59;99774.53;;;1.81;100.00
17505;BME280;8870;50.950;11.762;2023-02-15T00:33:20;99778.31;;;1.75;100.00
17505;BME280;8870;50.950;11.762;2023-02-15T00:38:51;99775.81;;;1.72;100.00
17505;BME280;8870;50.950;11.762;2023-02-15T00:44:22;99800.72;;;1.69;100.00
17505;BME280;8870;50.950;11.762;2023-02-15T00:49:43;99795.50;;;1.68;100.00
17505;BME280;8870;50.950;11.762;2023-02-15T00:55:14;99810.50;;;1.69;100.00
17505;BME280;8870;50.950;11.762;2023-02-15T01:00:32;99816.75;;;1.68;100.00
17505;BME280;8870;50.950;11.762;2023-02-15T01:06:07;99818.63;;;1.66;100.00
17505;BME280;8870;50.950;11.762;2023-02-15T01:11:25;99817.91;;;1.62;100.00
17505;BME280;8870;50.950;11.762;2023-02-15T01:16:56;99814.53;;;1.59;100.00
17505;BME280;8870;50.950;11.762;2023-02-15T01:22:17;99817.09;;;1.60;100.00
17505;BME280;8870;50.950;11.762;2023-02-15T01:27:48;99805.59;;;1.60;100.00
17505;BME280;8870;50.950;11.762;2023-02-15T01:33:06;99802.09;;;1.59;100.00
17505;BME280;8870;50.950;11.762;2023-02-15T01:38:42;99787.16;;;1.57;100.00
17505;BME280;8870;50.950;11.762;2023-02-15T01:44:02;99770.66;;;1.50;100.00
17505;BME280;8870;50.950;11.762;2023-02-15T01:49:33;99761.97;;;1.46;100.00
17505;BME280;8870;50.950;11.762;2023-02-15T01:54:55;99755.91;;;1.43;100.00
17505;BME280;8870;50.950;11.762;2023-02-15T02:00:26;99750.75;;;1.40;100.00
17505;BME280;8870;50.950;11.762;2023-02-15T02:05:44;99738.66;;;1.32;100.00
17505;BME280;8870;50.950;11.762;2023-02-15T02:11:19;99737.28;;;1.23;100.00
17505;BME280;8870;50.950;11.762;2023-02-15T02:16:44;99736.66;;;1.18;100.00
17505;BME280;8870;50.950;11.762;2023-02-15T02:28:27;99738.63;;;1.13;100.00
17505;BME280;8870;50.950;11.762;2023-02-15T02:34:14;99718.75;;;1.03;100.00
17505;BME280;8870;50.950;11.762;2023-02-15T02:39:47;99704.97;;;0.95;100.00
17505;BME280;8870;50.950;11.762;2023-02-15T02:45:26;99692.13;;;0.85;100.00
17505;BME280;8870;50.950;11.762;2023-02-15T02:50:48;99686.44;;;0.74;100.00
17505;BME280;8870;50.950;11.762;2023-02-15T02:56:27;99697.25;;;0.69;100.00
17505;BME280;8870;50.950;11.762;2023-02-15T03:01:50;99689.66;;;0.60;100.00
17505;BME280;8870;50.950;11.762;2023-02-15T03:07:26;99684.03;;;0.47;100.00
17505;BME280;8870;50.950;11.762;2023-02-15T03:12:46;99681.09;;;0.33;100.00
17505;BME280;8870;50.950;11.762;2023-02-15T03:18:21;99679.91;;;0.19;100.00
17505;BME280;8870;50.950;11.762;2023-02-15T03:23:43;99673.66;;;-0.01;100.00
17505;BME280;8870;50.950;11.762;2023-02-15T03:29:15;99662.59;;;-0.33;100.00
17505;BME280;8870;50.950;11.762;2023-02-15T03:34:35;99653.06;;;-0.60;100.00
17505;BME280;8870;50.950;11.762;2023-02-15T03:40:11;99650.72;;;-0.90;100.00
17505;BME280;8870;50.950;11.762;2023-02-15T03:46:03;99643.59;;;-1.12;100.00
17505;BME280;8870;50.950;11.762;2023-02-15T03:51:27;99652.00;;;-1.26;100.00
17505;BME280;8870;50.950;11.762;2023-02-15T03:57:03;99645.50;;;-1.41;100.00
17505;BME280;8870;50.950;11.762;2023-02-15T04:02:38;99642.47;;;-1.56;100.00
17505;BME280;8870;50.950;11.762;2023-02-15T04:08:12;99640.25;;;-1.68;100.00
17505;BME280;8870;50.950;11.762;2023-02-15T04:13:33;99641.56;;;-1.80;100.00
17505;BME280;8870;50.950;11.762;2023-02-15T04:19:04;99651.41;;;-1.85;100.00
17505;BME280;8870;50.950;11.762;2023-02-15T04:24:36;99658.75;;;-1.93;100.00
17505;BME280;8870;50.950;11.762;2023-02-15T04:30:24;99662.25;;;-1.93;100.00
17505;BME280;8870;50.950;11.762;2023-02-15T04:35:43;99661.53;;;-1.98;100.00
17505;BME280;8870;50.950;11.762;2023-02-15T04:41:14;99667.84;;;-2.02;100.00
17505;BME280;8870;50.950;11.762;2023-02-15T04:46:35;99674.84;;;-2.01;100.00
17505;BME280;8870;50.950;11.762;2023-02-15T04:52:08;99663.38;;;-2.00;100.00
17505;BME280;8870;50.950;11.762;2023-02-15T04:57:26;99662.41;;;-1.97;100.00
17505;BME280;8870;50.950;11.762;2023-02-15T05:02:59;99669.38;;;-1.95;100.00
17505;BME280;8870;50.950;11.762;2023-02-15T05:08:18;99667.53;;;-1.93;100.00
17505;BME280;8870;50.950;11.762;2023-02-15T05:13:50;99662.38;;;-1.96;100.00
17505;BME280;8870;50.950;11.762;2023-02-15T05:19:10;99665.69;;;-1.91;100.00
17505;BME280;8870;50.950;11.762;2023-02-15T05:24:41;99667.31;;;-1.87;100.00
17505;BME280;8870;50.950;11.762;2023-02-15T05:35:47;99662.09;;;-1.88;100.00
17505;BME280;8870;50.950;11.762;2023-02-15T05:41:12;99654.97;;;-1.86;100.00
17505;BME280;8870;50.950;11.762;2023-02-15T05:46:43;99650.56;;;-1.86;100.00
17505;BME280;8870;50.950;11.762;2023-02-15T05:52:05;99655.75;;;-1.82;100.00
17505;BME280;8870;50.950;11.762;2023-02-15T05:57:36;99660.06;;;-1.80;100.00
17505;BME280;8870;50.950;11.762;2023-02-15T06:02:55;99668.00;;;-1.80;100.00
17505;BME280;8870;50.950;11.762;2023-02-15T06:08:28;99667.91;;;-1.77;100.00
17505;BME280;8870;50.950;11.762;2023-02-15T06:13:47;99672.13;;;-1.73;100.00
17505;BME280;8870;50.950;11.762;2023-02-15T06:19:18;99674.75;;;-1.71;100.00
17505;BME280;8870;50.950;11.762;2023-02-15T06:24:40;99672.03;;;-1.69;100.00
17505;BME280;8870;50.950;11.762;2023-02-15T06:30:13;99679.91;;;-1.68;100.00
17505;BME280;8870;50.950;11.762;2023-02-15T06:35:31;99681.72;;;-1.70;100.00
17505;BME280;8870;50.950;11.762;2023-02-15T06:41:04;99684.59;;;-1.76;100.00
17505;BME280;8870;50.950;11.762;2023-02-15T06:46:35;99663.81;;;-1.87;100.00
17505;BME280;8870;50.950;11.762;2023-02-15T06:51:54;99666.75;;;-1.96;100.00
17505;BME280;8870;50.950;11.762;2023-02-15T06:57:30;99656.34;;;-2.01;100.00
17505;BME280;8870;50.950;11.762;2023-02-15T07:02:53;99644.13;;;-2.04;100.00
17505;BME280;8870;50.950;11.762;2023-02-15T07:08:25;99637.19;;;-2.06;100.00
17505;BME280;8870;50.950;11.762;2023-02-15T07:13:46;99635.47;;;-2.09;100.00
17505;BME280;8870;50.950;11.762;2023-02-15T07:19:19;99637.13;;;-2.05;100.00
17505;BME280;8870;50.950;11.762;2023-02-15T07:24:37;99630.75;;;-1.99;100.00
17505;BME280;8870;50.950;11.762;2023-02-15T07:30:12;99640.16;;;-1.90;100.00
17505;BME280;8870;50.950;11.762;2023-02-15T07:35:31;99635.41;;;-1.80;100.00
17505;BME280;8870;50.950;11.762;2023-02-15T07:41:04;99635.88;;;-1.69;100.00
17505;BME280;8870;50.950;11.762;2023-02-15T07:46:38;99627.53;;;-1.57;100.00
17505;BME280;8870;50.950;11.762;2023-02-15T07:51:56;99629.75;;;-1.44;100.00
17505;BME280;8870;50.950;11.762;2023-02-15T07:57:28;99643.22;;;-1.27;100.00
17505;BME280;8870;50.950;11.762;2023-02-15T08:02:50;99644.38;;;-1.10;100.00
17505;BME280;8870;50.950;11.762;2023-02-15T08:08:34;99638.09;;;-0.84;100.00
17505;BME280;8870;50.950;11.762;2023-02-15T08:13:54;99641.00;;;-0.68;100.00
17505;BME280;8870;50.950;11.762;2023-02-15T08:19:30;99631.31;;;-0.45;100.00
17505;BME280;8870;50.950;11.762;2023-02-15T08:24:50;99624.84;;;-0.17;100.00
17505;BME280;8870;50.950;11.762;2023-02-15T08:30:21;99591.50;;;-0.01;100.00
17505;BME280;8870;50.950;11.762;2023-02-15T08:35:42;99579.25;;;0.18;100.00
17505;BME280;8870;50.950;11.762;2023-02-15T08:41:15;99563.53;;;0.34;100.00
17505;BME280;8870;50.950;11.762;2023-02-15T08:46:48;99547.97;;;0.47;100.00
17505;BME280;8870;50.950;11.762;2023-02-15T08:52:09;99541.81;;;0.65;100.00
17505;BME280;8870;50.950;11.762;2023-02-15T08:57:41;99533.78;;;0.86;100.00
17505;BME280;8870;50.950;11.762;2023-02-15T09:03:01;99536.56;;;1.02;100.00
17505;BME280;8870;50.950;11.762;2023-02-15T09:08:34;99533.97;;;1.19;100.00
17505;BME280;8870;50.950;11.762;2023-02-15T09:13:54;99522.66;;;1.33;100.00
17505;BME280;8870;50.950;11.762;2023-02-15T09:19:25;99523.47;;;1.53;100.00
17505;BME280;8870;50.950;11.762;2023-02-15T09:24:46;99527.22;;;1.66;100.00
17505;BME280;8870;50.950;11.762;2023-02-15T09:30:18;99514.88;;;1.83;100.00
17505;BME280;8870;50.950;11.762;2023-02-15T09:35:36;99519.34;;;2.00;100.00
17505;BME280;8870;50.950;11.762;2023-02-15T09:41:21;99515.00;;;2.15;100.00
17505;BME280;8870;50.950;11.762;2023-02-15T09:47:28;99513.13;;;2.51;100.00
17505;BME280;8870;50.950;11.762;2023-02-15T09:53:07;99501.66;;;2.66;100.00
17505;BME280;8870;50.950;11.762;2023-02-15T09:58:51;99485.00;;;2.95;100.00
17505;BME280;8870;50.950;11.762;2023-02-15T10:10:19;99450.53;;;3.54;100.00
17505;BME280;8870;50.950;11.762;2023-02-15T10:15:54;99454.97;;;3.84;100.00
17505;BME280;8870;50.950;11.762;2023-02-15T10:21:39;99445.09;;;4.15;100.00
17505;BME280;8870;50.950;11.762;2023-02-15T10:27:05;99436.78;;;4.48;100.00
17505;BME280;8870;50.950;11.762;2023-02-15T10:32:50;99435.44;;;4.70;100.00
17505;BME280;8870;50.950;11.762;2023-02-15T10:38:20;99425.25;;;4.90;100.00
17505;BME280;8870;50.950;11.762;2023-02-15T10:44:04;99426.84;;;5.20;100.00
17505;BME280;8870;50.950;11.762;2023-02-15T10:49:49;99426.91;;;5.46;100.00
17505;BME280;8870;50.950;11.762;2023-02-15T10:55:29;99418.81;;;5.73;100.00
17505;BME280;8870;50.950;11.762;2023-02-15T11:00:56;99411.78;;;5.98;100.00
17505;BME280;8870;50.950;11.762;2023-02-15T11:06:37;99414.03;;;6.17;100.00
17505;BME280;8870;50.950;11.762;2023-02-15T11:11:57;99409.41;;;6.32;100.00
17505;BME280;8870;50.950;11.762;2023-02-15T11:17:35;99420.44;;;6.40;100.00
17505;BME280;8870;50.950;11.762;2023-02-15T11:22:59;99408.75;;;6.41;100.00
17505;BME280;8870;50.950;11.762;2023-02-15T11:28:41;99395.16;;;6.44;100.00
17505;BME280;8870;50.950;11.762;2023-02-15T11:34:04;99376.94;;;6.50;100.00
17505;BME280;8870;50.950;11.762;2023-02-15T11:39:40;99375.31;;;6.60;100.00
17505;BME280;8870;50.950;11.762;2023-02-15T11:45:22;99357.06;;;6.65;100.00
17505;BME280;8870;50.950;11.762;2023-02-15T11:50:44;99357.66;;;6.82;100.00
17505;BME280;8870;50.950;11.762;2023-02-15T11:56:20;99342.59;;;6.92;100.00
17505;BME280;8870;50.950;11.762;2023-02-15T12:01:42;99336.31;;;7.04;100.00
17505;BME280;8870;50.950;11.762;2023-02-15T12:07:18;99324.06;;;7.24;100.00
17505;BME280;8870;50.950;11.762;2023-02-15T12:12:43;99330.06;;;7.39;100.00
17505;BME280;8870;50.950;11.762;2023-02-15T12:18:21;99321.31;;;7.60;100.00
17505;BME280;8870;50.950;11.762;2023-02-15T12:23:47;99318.94;;;8.02;100.00
17505;BME280;8870;50.950;11.762;2023-02-15T12:29:25;99313.41;;;8.27;100.00
17505;BME280;8870;50.950;11.762;2023-02-15T12:34:45;99313.84;;;8.66;100.00
17505;BME280;8870;50.950;11.762;2023-02-15T12:40:21;99311.16;;;8.99;100.00
17505;BME280;8870;50.950;11.762;2023-02-15T12:45:43;99304.19;;;9.17;100.00
17505;BME280;8870;50.950;11.762;2023-02-15T12:51:15;99300.06;;;9.55;100.00
17505;BME280;8870;50.950;11.762;2023-02-15T12:56:34;99292.81;;;9.77;100.00
17505;BME280;8870;50.950;11.762;2023-02-15T13:02:17;99290.94;;;10.09;100.00
17505;BME280;8870;50.950;11.762;2023-02-15T13:07:38;99276.84;;;10.36;100.00
17505;BME280;8870;50.950;11.762;2023-02-15T13:13:10;99272.66;;;10.63;100.00
17505;BME280;8870;50.950;11.762;2023-02-15T13:18:34;99264.56;;;10.92;100.00
17505;BME280;8870;50.950;11.762;2023-02-15T13:24:15;99259.09;;;11.41;100.00
17505;BME280;8870;50.950;11.762;2023-02-15T13:29:37;99238.28;;;11.99;100.00
17505;BME280;8870;50.950;11.762;2023-02-15T13:35:15;99236.97;;;12.31;91.14
17505;BME280;8870;50.950;11.762;2023-02-15T13:40:44;99231.56;;;12.68;100.00
17505;BME280;8870;50.950;11.762;2023-02-15T13:46:27;99223.44;;;13.04;84.16
17505;BME280;8870;50.950;11.762;2023-02-15T13:51:59;99235.38;;;13.19;87.32
17505;BME280;8870;50.950;11.762;2023-02-15T13:58:06;99228.16;;;13.46;77.81
17505;BME280;8870;50.950;11.762;2023-02-15T14:03:55;99231.91;;;13.53;67.23
17505;BME280;8870;50.950;11.762;2023-02-15T14:09:42;99234.88;;;13.68;61.68
17505;BME280;8870;50.950;11.762;2023-02-15T14:15:09;99229.94;;;13.98;68.98
17505;BME280;8870;50.950;11.762;2023-02-15T14:20:49;99226.63;;;14.29;60.82
17505;BME280;8870;50.950;11.762;2023-02-15T14:26:19;99223.38;;;14.17;62.28
17505;BME280;8870;50.950;11.762;2023-02-15T14:31:57;99223.41;;;14.26;61.21
17505;BME280;8870;50.950;11.762;2023-02-15T14:37:23;99208.03;;;14.59;75.46
17505;BME280;8870;50.950;11.762;2023-02-15T14:43:07;99218.09;;;14.75;56.29
17505;BME280;8870;50.950;11.762;2023-02-15T14:48:43;99212.16;;;14.80;59.55
17505;BME280;8870;50.950;11.762;2023-02-15T14:54:03;99208.94;;;15.09;65.55
17505;BME280;8870;50.950;11.762;2023-02-15T14:59:41;99208.41;;;14.98;66.89
17505;BME280;8870;50.950;11.762;2023-02-15T15:05:06;99206.88;;;15.03;69.16
17505;BME280;8870;50.950;11.762;2023-02-15T15:10:42;99207.06;;;14.77;83.84
17505;BME280;8870;50.950;11.762;2023-02-15T15:16:25;99207.53;;;14.56;100.00
17505;BME280;8870;50.950;11.762;2023-02-15T15:22:03;99202.53;;;14.10;100.00
17505;BME280;8870;50.950;11.762;2023-02-15T15:27:50;99207.97;;;13.67;100.00
17505;BME280;8870;50.950;11.762;2023-02-15T15:39:51;99206.41;;;13.38;100.00
17505;BME280;8870;50.950;11.762;2023-02-15T15:46:03;99212.00;;;13.10;100.00
17505;BME280;8870;50.950;11.762;2023-02-15T15:51:29;99206.06;;;12.88;100.00
17505;BME280;8870;50.950;11.762;2023-02-15T15:57:05;99218.50;;;12.27;100.00
17505;BME280;8870;50.950;11.762;2023-02-15T16:02:24;99212.94;;;12.10;100.00
17505;BME280;8870;50.950;11.762;2023-02-15T16:07:55;99211.16;;;11.91;100.00
17505;BME280;8870;50.950;11.762;2023-02-15T16:13:15;99213.75;;;11.55;100.00
17505;BME280;8870;50.950;11.762;2023-02-15T16:18:37;99203.06;;;11.25;100.00
17505;BME280;8870;50.950;11.762;2023-02-15T16:24:21;99217.00;;;11.01;100.00
17505;BME280;8870;50.950;11.762;2023-02-15T16:29:44;99225.97;;;10.53;100.00
17505;BME280;8870;50.950;11.762;2023-02-15T16:35:17;99223.38;;;10.22;100.00
17505;BME280;8870;50.950;11.762;2023-02-15T16:40:52;99218.78;;;9.93;100.00
17505;BME280;8870;50.950;11.762;2023-02-15T16:46:29;99213.16;;;9.65;100.00
17505;BME280;8870;50.950;11.762;2023-02-15T16:51:55;99209.28;;;9.48;100.00
17505;BME280;8870;50.950;11.762;2023-02-15T16:57:30;99209.56;;;9.23;100.00
17505;BME280;8870;50.950;11.762;2023-02-15T17:02:59;99211.97;;;8.96;100.00
17505;BME280;8870;50.950;11.762;2023-02-15T17:08:32;99219.28;;;8.72;100.00
17505;BME280;8870;50.950;11.762;2023-02-15T17:14:11;99220.47;;;8.47;100.00
17505;BME280;8870;50.950;11.762;2023-02-15T17:19:49;99217.41;;;8.08;100.00
17505;BME280;8870;50.950;11.762;2023-02-15T17:25:18;99222.44;;;7.90;100.00
17505;BME280;8870;50.950;11.762;2023-02-15T17:30:51;99227.34;;;7.84;100.00
17505;BME280;8870;50.950;11.762;2023-02-15T17:36:16;99218.94;;;7.78;100.00
17505;BME280;8870;50.950;11.762;2023-02-15T17:41:50;99226.25;;;7.64;100.00
17505;BME280;8870;50.950;11.762;2023-02-15T17:47:23;99234.06;;;7.56;100.00
17505;BME280;8870;50.950;11.762;2023-02-15T17:52:47;99238.47;;;7.46;100.00
17505;BME280;8870;50.950;11.762;2023-02-15T17:58:19;99238.69;;;7.31;100.00
17505;BME280;8870;50.950;11.762;2023-02-15T18:03:40;99240.75;;;7.16;100.00
17505;BME280;8870;50.950;11.762;2023-02-15T18:09:27;99241.19;;;6.99;100.00
17505;BME280;8870;50.950;11.762;2023-02-15T18:14:58;99237.13;;;6.82;100.00
17505;BME280;8870;50.950;11.762;2023-02-15T18:20:32;99239.50;;;6.62;100.00
17505;BME280;8870;50.950;11.762;2023-02-15T18:25:53;99246.75;;;6.48;100.00
17505;BME280;8870;50.950;11.762;2023-02-15T18:31:25;99239.97;;;6.31;100.00
17505;BME280;8870;50.950;11.762;2023-02-15T18:36:44;99231.25;;;6.16;100.00
17505;BME280;8870;50.950;11.762;2023-02-15T18:42:21;99239.09;;;6.07;100.00
17505;BME280;8870;50.950;11.762;2023-02-15T18:47:41;99228.16;;;5.97;100.00
17505;BME280;8870;50.950;11.762;2023-02-15T18:53:15;99231.09;;;5.81;100.00
17505;BME280;8870;50.950;11.762;2023-02-15T18:58:37;99227.06;;;5.75;100.00
17505;BME280;8870;50.950;11.762;2023-02-15T19:04:11;99228.69;;;5.65;100.00
17505;BME280;8870;50.950;11.762;2023-02-15T19:09:32;99232.25;;;5.52;100.00
17505;BME280;8870;50.950;11.762;2023-02-15T19:15:08;99231.59;;;5.36;100.00
17505;BME280;8870;50.950;11.762;2023-02-15T19:20:33;99226.91;;;5.27;100.00
17505;BME280;8870;50.950;11.762;2023-02-15T19:26:06;99226.81;;;5.15;100.00
17505;BME280;8870;50.950;11.762;2023-02-15T19:31:27;99231.72;;;5.08;100.00
17505;BME280;8870;50.950;11.762;2023-02-15T19:36:58;99225.50;;;4.95;100.00
17505;BME280;8870;50.950;11.762;2023-02-15T19:42:24;99225.31;;;4.85;100.00
17505;BME280;8870;50.950;11.762;2023-02-15T19:47:59;99223.91;;;4.80;100.00
17505;BME280;8870;50.950;11.762;2023-02-15T19:53:22;99215.53;;;4.71;100.00
17505;BME280;8870;50.950;11.762;2023-02-15T19:58:54;99204.66;;;4.61;100.00
17505;BME280;8870;50.950;11.762;2023-02-15T20:04:16;99204.63;;;4.48;100.00
17505;BME280;8870;50.950;11.762;2023-02-15T20:09:47;99200.66;;;4.41;100.00
17505;BME280;8870;50.950;11.762;2023-02-15T20:15:20;99202.53;;;4.26;100.00
17505;BME280;8870;50.950;11.762;2023-02-15T20:20:54;99212.97;;;4.16;100.00
17505;BME280;8870;50.950;11.762;2023-02-15T20:26:14;99206.41;;;4.08;100.00
17505;BME280;8870;50.950;11.762;2023-02-15T20:31:50;99201.69;;;3.98;100.00
17505;BME280;8870;50.950;11.762;2023-02-15T20:37:17;99193.53;;;3.87;100.00
17505;BME280;8870;50.950;11.762;2023-02-15T20:42:52;99197.75;;;3.77;100.00
17505;BME280;8870;50.950;11.762;2023-02-15T20:48:10;99193.97;;;3.66;100.00
17505;BME280;8870;50.950;11.762;2023-02-15T20:53:44;99194.75;;;3.54;100.00
17505;BME280;8870;50.950;11.762;2023-02-15T20:59:08;99198.06;;;3.43;100.00
17505;BME280;8870;50.950;11.762;2023-02-15T21:04:42;99197.59;;;3.36;100.00
17505;BME280;8870;50.950;11.762;2023-02-15T21:10:03;99205.34;;;3.27;100.00
17505;BME280;8870;50.950;11.762;2023-02-15T21:15:36;99206.00;;;3.16;100.00
17505;BME280;8870;50.950;11.762;2023-02-15T21:20:58;99198.88;;;3.16;100.00
17505;BME280;8870;50.950;11.762;2023-02-15T21:26:33;99204.56;;;3.24;100.00
17505;BME280;8870;50.950;11.762;2023-02-15T21:31:51;99203.91;;;3.21;100.00
17505;BME280;8870;50.950;11.762;2023-02-15T21:37:29;99203.16;;;3.19;100.00
17505;BME280;8870;50.950;11.762;2023-02-15T21:42:51;99208.47;;;3.19;100.00
17505;BME280;8870;50.950;11.762;2023-02-15T21:48:35;99211.59;;;3.11;100.00
17505;BME280;8870;50.950;11.762;2023-02-15T21:53:53;99210.00;;;3.08;100.00
17505;BME280;8870;50.950;11.762;2023-02-15T21:59:28;99204.19;;;3.02;100.00
17505;BME280;8870;50.950;11.762;2023-02-15T22:04:46;99194.94;;;2.93;100.00
17505;BME280;8870;50.950;11.762;2023-02-15T22:10:18;99193.97;;;2.80;100.00
17505;BME280;8870;50.950;11.762;2023-02-15T22:15:39;99198.75;;;2.74;100.00
17505;BME280;8870;50.950;11.762;2023-02-15T22:21:11;99200.81;;;2.69;100.00
17505;BME280;8870;50.950;11.762;2023-02-15T22:26:30;99209.16;;;2.63;100.00
17505;BME280;8870;50.950;11.762;2023-02-15T22:32:07;99210.56;;;2.54;100.00
17505;BME280;8870;50.950;11.762;2023-02-15T22:37:28;99217.09;;;2.49;100.00
17505;BME280;8870;50.950;11.762;2023-02-15T22:43:01;99208.34;;;2.46;100.00
17505;BME280;8870;50.950;11.762;2023-02-15T22:48:23;99207.59;;;2.44;100.00
17505;BME280;8870;50.950;11.762;2023-02-15T22:53:54;99222.75;;;2.42;100.00
17505;BME280;8870;50.950;11.762;2023-02-15T22:59:16;99213.34;;;2.37;100.00
17505;BME280;8870;50.950;11.762;2023-02-15T23:04:53;99209.25;;;2.31;100.00
17505;BME280;8870;50.950;11.762;2023-02-15T23:10:11;99209.72;;;2.23;100.00
17505;BME280;8870;50.950;11.762;2023-02-15T23:15:48;99209.28;;;2.15;100.00
17505;BME280;8870;50.950;11.762;2023-02-15T23:21:17;99207.06;;;2.07;100.00
17505;BME280;8870;50.950;11.762;2023-02-15T23:26:49;99210.84;;;2.03;100.00
17505;BME280;8870;50.950;11.762;2023-02-15T23:32:11;99207.41;;;2.01;100.00
17505;BME280;8870;50.950;11.762;2023-02-15T23:37:46;99201.50;;;1.96;100.00
17505;BME280;8870;50.950;11.762;2023-02-15T23:43:19;99207.00;;;1.93;100.00
17505;BME280;8870;50.950;11.762;2023-02-15T23:48:52;99204.63;;;1.88;100.00
17505;BME280;8870;50.950;11.762;2023-02-15T23:54:14;99204.00;;;1.83;100.00
17505;BME280;8870;50.950;11.762;2023-02-15T23:59:45;99203.31;;;1.79;100.00
